Flight Track Log - Related Links

Times and Time Zones

All times are in EDT time to prevent confusion due to time zone crossing. See the EGF2935 flight status page for this flight to view local times or setup timezone preferences in your user account.

Time Position Orientation Groundspeed Altitude Reporting Facility
EDT Latitude Longitude Course Direction KTS MPH feet Rate Location/Type
Mon 07:33:03 AM 43.1367 -89.4094 209° Southwest 199 229 4,000  Level Chicago Center
Mon 07:34:00 AM 42.8270 -89.5198 200° South  Level FlightAware Approximate
Mon 07:34:05 AM 43.0669 -89.4514 204° Southwest 228 262 5,800  Level Chicago Center
Mon 07:35:00 AM 42.7237 -89.5787 206° Southwest  Level FlightAware Approximate
Mon 07:35:07 AM 42.9944 -89.4931 203° Southwest 269 310 7,900  Level Chicago Center
Mon 07:36:00 AM 42.6229 -89.6459 206° Southwest  Level FlightAware Approximate
Mon 07:36:08 AM 42.9214 -89.5356 203° Southwest 282 325 10,000  Level Chicago Center
Mon 07:37:00 AM 42.5116 -89.7038 209° Southwest  Level FlightAware Approximate
Mon 07:37:10 AM 42.8453 -89.5814 204° Southwest 297 342 11,400  Level Chicago Center
Mon 07:38:00 AM 42.4072 -89.7821 209° Southwest  Level FlightAware Approximate
Mon 07:38:11 AM 42.7603 -89.6336 204° Southwest 330 380 12,500  Level Chicago Center
Mon 07:39:13 AM 42.6692 -89.6858 203° Southwest 351 404 14,100 1,355 Climbing Chicago Center
Mon 07:40:15 AM 42.5778 -89.7406 204° Southwest 359 413 15,300 1,317 Climbing Chicago Center
Mon 07:41:16 AM 42.4650 -89.8072 204° Southwest 375 432 16,800 1,220 Climbing Chicago Center
Mon 07:42:18 AM 42.3653 -89.8644 203° Southwest 387 445 17,800 1,258 Climbing Chicago Center
Mon 07:43:20 AM 42.2683 -89.9219 204° Southwest 389 448 19,400 1,512 Climbing Chicago Center
Mon 07:44:21 AM 42.1678 -89.9800 203° Southwest 392 451 20,900 1,415 Climbing Chicago Center
Mon 07:45:23 AM 42.0675 -90.0378 203° Southwest 393 452 22,300 1,403 Climbing Chicago Center
Mon 07:46:25 AM 41.9658 -90.0972 204° Southwest 399 459 23,800 829 Climbing Chicago Center
Mon 07:47:26 AM 41.8625 -90.1569 203° Southwest 405 466 24,000 537 Climbing Chicago Center
Mon 07:48:28 AM 41.7369 -90.2289 203° Southwest 438 504 24,900 919 Climbing Chicago Center
Mon 07:49:30 AM 41.6206 -90.2969 204° Southwest 453 521 25,900 537 Climbing Chicago Center
Mon 07:50:31 AM 41.5036 -90.3633 203° Southwest 457 526 26,000 390 Climbing Chicago Center
Mon 07:51:33 AM 41.3569 -90.4450 203° Southwest 471 542 26,700 968 Climbing Chicago Center
Mon 07:52:35 AM 41.2350 -90.5150 203° Southwest 477 549 28,000 1,258 Climbing Chicago Center
Mon 07:53:37 AM 41.1181 -90.5814 203° Southwest 467 537 29,300 976 Climbing Chicago Center
Mon 07:54:38 AM 41.0025 -90.6456 203° Southwest 457 526 30,000 829 Climbing Chicago Center
Mon 07:55:40 AM 40.8847 -90.7117 203° Southwest 459 528 31,000 968 Climbing Chicago Center
Mon 07:56:42 AM 40.7656 -90.7769 203° Southwest 464 534 32,000 1,073 Climbing Chicago Center
Mon 07:57:43 AM 40.6231 -90.8558 203° Southwest 465 535 33,200 1,073 Climbing Chicago Center
Mon 07:58:45 AM 40.5056 -90.9211 203° Southwest 463 533 34,200 968 Climbing Chicago Center
Mon 07:59:47 AM 40.3897 -90.9864 203° Southwest 459 528 35,200 941 Climbing Chicago Center
Mon 08:00:27 AM 40.3181 -91.0236 202° Southwest 456 525 35,800 475 Climbing Kansas City Center
Mon 08:01:28 AM 40.1922 -91.0919 203° Southwest 452 520 36,000 98 Climbing Kansas City Center
Mon 08:02:29 AM 40.0722 -91.1581 203° Southwest 463 533 36,000  Level Kansas City Center
Mon 08:03:30 AM 39.9450 -91.2275 203° Southwest 485 558 36,000  Level Kansas City Center
Mon 08:04:32 AM 39.8169 -91.3028 204° Southwest 502 578 36,000  Level Kansas City Center
Mon 08:05:33 AM 39.7022 -91.4031 214° Southwest 501 577 36,000  Level Kansas City Center
Mon 08:06:34 AM 39.5875 -91.5019 214° Southwest 499 574 36,000  Level Kansas City Center
Mon 08:07:35 AM 39.4706 -91.6008 213° Southwest 495 570 36,000  Level Kansas City Center
Mon 08:08:36 AM 39.3394 -91.7125 213° Southwest 487 560 36,000  Level Kansas City Center
Mon 08:09:38 AM 39.2308 -91.8025 213° Southwest 482 555 36,000  Level Kansas City Center
Mon 08:10:39 AM 39.1194 -91.8967 213° Southwest 478 550 36,000  Level Kansas City Center
Mon 08:11:40 AM 39.0089 -91.9911 214° Southwest 477 549 36,000  Level Kansas City Center
Mon 08:12:42 AM 38.8972 -92.0836 213° Southwest 477 549 36,000  Level Kansas City Center
Mon 08:13:43 AM 38.7864 -92.1772 213° Southwest 476 548 36,000  Level Kansas City Center
Mon 08:14:44 AM 38.6750 -92.2683 213° Southwest 475 547 36,000  Level Kansas City Center
Mon 08:15:45 AM 38.5408 -92.3794 213° Southwest 477 549 36,000  Level Kansas City Center
Mon 08:16:47 AM 38.4286 -92.4708 213° Southwest 478 550 36,000  Level Kansas City Center
Mon 08:17:48 AM 38.3158 -92.5633 213° Southwest 482 555 36,000  Level Kansas City Center
Mon 08:18:50 AM 38.2039 -92.6539 212° Southwest 480 552 36,000  Level Kansas City Center
Mon 08:19:51 AM 38.0894 -92.7478 213° Southwest 481 554 36,000  Level Kansas City Center
Mon 08:20:52 AM 37.9797 -92.8361 212° Southwest 482 555 36,000  Level Kansas City Center
Mon 08:21:54 AM 37.8664 -92.9269 212° Southwest 483 556 36,000  Level Kansas City Center
Mon 08:22:55 AM 37.7533 -93.0169 212° Southwest 481 554 36,000  Level Kansas City Center
Mon 08:23:57 AM 37.6172 -93.1256 212° Southwest 479 551 36,000  Level Kansas City Center
Mon 08:24:58 AM 37.5036 -93.2161 212° Southwest 482 555 36,000  Level Kansas City Center
Mon 08:26:00 AM 37.3881 -93.3061 212° Southwest 486 559 36,000  Level Kansas City Center
Mon 08:27:01 AM 37.2722 -93.3917 210° Southwest 484 557 36,000  Level Kansas City Center
Mon 08:28:03 AM 37.1561 -93.4753 210° Southwest 480 552 36,000  Level Kansas City Center
Mon 08:29:04 AM 37.0414 -93.5597 210° Southwest 478 550 36,000  Level Kansas City Center
Mon 08:30:06 AM 36.9258 -93.6422 210° Southwest 477 549 36,000  Level Kansas City Center
Mon 08:31:07 AM 36.8019 -93.7283 209° Southwest 481 554 36,000  Level Kansas City Center
Mon 08:32:09 AM 36.6756 -93.8181 210° Southwest 476 548 36,000  Level Kansas City Center
Mon 08:33:10 AM 36.5603 -93.8997 210° Southwest 474 545 36,000  Level Kansas City Center
Mon 08:34:12 AM 36.4453 -93.9811 210° Southwest 473 544 36,000  Level Kansas City Center
Mon 08:35:13 AM 36.3294 -94.0608 209° Southwest 473 544 36,000  Level Kansas City Center
Mon 08:36:15 AM 36.2058 -94.1211 201° Southwest 471 542 36,000  Level Kansas City Center
Mon 08:37:08 AM 36.1089 -94.1669 201° Southwest 478 550 36,000  Level Memphis Center
Mon 08:38:08 AM 35.9756 -94.2275 200° South 473 544 36,000  Level Memphis Center
Mon 08:39:08 AM 35.8508 -94.2856 201° Southwest 473 544 36,000  Level Memphis Center
Mon 08:40:08 AM 35.7300 -94.3464 202° Southwest 473 544 36,000  Level Memphis Center
Mon 08:41:08 AM 35.6114 -94.4044 202° Southwest 473 544 36,000  Level Memphis Center
Mon 08:42:08 AM 35.4928 -94.4575 200° South 473 544 36,000  Level Memphis Center
Mon 08:43:58 AM 35.2717 -94.5606 201° Southwest 470 541 36,000  Level Fort Worth Center
Mon 08:44:58 AM 35.1561 -94.6153 201° Southwest 464 534 36,000  Level Fort Worth Center
Mon 08:45:58 AM 35.0344 -94.6750 202° Southwest 464 534 36,000  Level Fort Worth Center
Mon 08:46:58 AM 34.9319 -94.7619 215° Southwest 464 534 36,000  Level Fort Worth Center
Mon 08:47:58 AM 34.8422 -94.8658 224° Southwest 459 528 36,000  Level Fort Worth Center
Mon 08:48:58 AM 34.7483 -94.9647 221° Southwest 451 519 36,000 -350 Level Fort Worth Center
Mon 08:49:58 AM 34.6522 -95.0658 221° Southwest 456 525 35,300 -800 Descending Fort Worth Center
Mon 08:50:58 AM 34.5561 -95.1694 222° Southwest 456 525 34,400 -950 Descending Fort Worth Center
Mon 08:51:58 AM 34.4578 -95.2728 221° Southwest 464 534 33,400 -950 Descending Fort Worth Center
Mon 08:52:58 AM 34.3592 -95.3783 221° Southwest 469 540 32,500 -950 Descending Fort Worth Center
Mon 08:53:58 AM 34.2650 -95.4786 221° Southwest 469 540 31,500 -1,000 Descending Fort Worth Center
Mon 08:54:58 AM 34.1561 -95.5939 221° Southwest 469 540 30,500 -950 Descending Fort Worth Center
Mon 08:55:58 AM 34.0758 -95.6783 221° Southwest 469 540 29,600 -1,600 Descending Fort Worth Center
Mon 08:56:58 AM 33.9811 -95.7803 222° Southwest 456 525 27,300 -2,650 Descending Fort Worth Center
Mon 08:57:58 AM 33.8844 -95.8822 221° Southwest 456 525 24,300 -3,100 Descending Fort Worth Center
Mon 08:58:58 AM 33.7875 -95.9864 222° Southwest 447 514 21,100 -3,200 Descending Fort Worth Center
Mon 08:59:58 AM 33.7008 -96.0803 222° Southwest 425 489 17,900 -2,750 Descending Fort Worth Center
Mon 09:00:58 AM 33.6203 -96.1661 222° Southwest 411 473 15,600 -2,200 Descending Fort Worth Center
Mon 09:01:58 AM 33.5378 -96.2547 222° Southwest 403 464 13,500 -1,700 Descending Fort Worth Center
Mon 09:02:58 AM 33.4633 -96.3303 220° Southwest 387 445 12,200 -1,150 Descending Fort Worth Center
Mon 09:03:58 AM 33.4033 -96.3958 222° Southwest 317 365 11,200 -650 Descending Fort Worth Center
Mon 09:04:58 AM 33.3433 -96.4661 224° Southwest 300 345 10,900 -650 Descending Fort Worth Center
Mon 09:05:58 AM 33.2853 -96.5364 225° Southwest 295 339 9,900 -1,000 Descending Fort Worth Center
Mon 09:06:58 AM 33.2336 -96.6064 229° Southwest 287 330 8,900 -1,000 Descending Fort Worth Center
Mon 09:07:58 AM 33.2069 -96.6786 246° West 275 316 7,900 -1,000 Descending Fort Worth Center
Mon 09:08:58 AM 33.1742 -96.7631 245° Southwest 260 299 6,900 -950 Descending Fort Worth Center
Mon 09:09:58 AM 33.1408 -96.8281 239° Southwest 254 292 6,000 -1,250 Descending Fort Worth Center
Mon 09:10:58 AM 33.1036 -96.9000 238° Southwest 254 292 4,400 -1,350 Descending Fort Worth Center
Mon 09:11:58 AM 33.0728 -96.9697 242° Southwest 236 272 3,300 -736 Descending Fort Worth Center
Mon 09:12:44 AM 33.0667 -97.0000 256° West 146 168 3,100 -261 Descending Dallas / Fort Worth TRACON

Login

Don't have an account? Register now (free) for customized features, flight alerts, and more!